sensor_id;sensor_type;location;lat;lon;timestamp;pressure;altitude;pressure_sealevel;temperature;humidity
33554;BME280;19885;42.208;24.952;2023-12-20T00:00:52;100330.69;;;2.28;100.00
33554;BME280;19885;42.208;24.952;2023-12-20T00:03:17;100324.97;;;2.34;100.00
33554;BME280;19885;42.208;24.952;2023-12-20T00:05:42;100320.53;;;1.77;100.00
33554;BME280;19885;42.208;24.952;2023-12-20T00:08:08;100319.28;;;2.04;100.00
33554;BME280;19885;42.208;24.952;2023-12-20T00:10:33;100328.72;;;2.23;100.00
33554;BME280;19885;42.208;24.952;2023-12-20T00:13:02;100329.22;;;2.33;100.00
33554;BME280;19885;42.208;24.952;2023-12-20T00:15:30;100319.03;;;2.17;100.00
33554;BME280;19885;42.208;24.952;2023-12-20T00:17:55;100314.38;;;2.28;100.00
33554;BME280;19885;42.208;24.952;2023-12-20T00:20:21;100316.88;;;2.26;100.00
33554;BME280;19885;42.208;24.952;2023-12-20T00:22:47;100313.78;;;2.33;100.00
33554;BME280;19885;42.208;24.952;2023-12-20T00:25:13;100314.53;;;2.31;100.00
33554;BME280;19885;42.208;24.952;2023-12-20T00:27:39;100307.63;;;2.30;100.00
33554;BME280;19885;42.208;24.952;2023-12-20T00:30:04;100305.56;;;2.40;100.00
33554;BME280;19885;42.208;24.952;2023-12-20T00:32:31;100298.53;;;2.36;100.00
33554;BME280;19885;42.208;24.952;2023-12-20T00:34:58;100295.28;;;2.40;100.00
33554;BME280;19885;42.208;24.952;2023-12-20T00:37:24;100290.72;;;2.35;100.00
33554;BME280;19885;42.208;24.952;2023-12-20T00:39:49;100285.56;;;2.35;100.00
33554;BME280;19885;42.208;24.952;2023-12-20T00:42:14;100285.50;;;2.33;100.00
33554;BME280;19885;42.208;24.952;2023-12-20T00:44:40;100285.66;;;2.36;100.00
33554;BME280;19885;42.208;24.952;2023-12-20T00:47:05;100275.41;;;2.18;100.00
33554;BME280;19885;42.208;24.952;2023-12-20T00:49:30;100275.19;;;2.14;100.00
33554;BME280;19885;42.208;24.952;2023-12-20T00:51:55;100280.34;;;1.96;100.00
33554;BME280;19885;42.208;24.952;2023-12-20T00:54:21;100274.78;;;1.52;100.00
33554;BME280;19885;42.208;24.952;2023-12-20T00:56:46;100276.19;;;1.81;100.00
33554;BME280;19885;42.208;24.952;2023-12-20T00:59:12;100281.09;;;1.94;100.00
33554;BME280;19885;42.208;24.952;2023-12-20T01:01:37;100284.31;;;1.90;100.00
33554;BME280;19885;42.208;24.952;2023-12-20T01:04:03;100277.81;;;1.61;100.00
33554;BME280;19885;42.208;24.952;2023-12-20T01:06:28;100275.81;;;1.04;100.00
33554;BME280;19885;42.208;24.952;2023-12-20T01:08:54;100276.31;;;0.81;100.00
33554;BME280;19885;42.208;24.952;2023-12-20T01:11:19;100270.84;;;0.75;100.00
33554;BME280;19885;42.208;24.952;2023-12-20T01:13:47;100267.44;;;0.75;100.00
33554;BME280;19885;42.208;24.952;2023-12-20T01:16:12;100255.34;;;1.06;100.00
33554;BME280;19885;42.208;24.952;2023-12-20T01:18:37;100254.41;;;1.04;100.00
33554;BME280;19885;42.208;24.952;2023-12-20T01:21:04;100251.03;;;0.89;100.00
33554;BME280;19885;42.208;24.952;2023-12-20T01:23:29;100246.22;;;0.45;100.00
33554;BME280;19885;42.208;24.952;2023-12-20T01:25:54;100239.94;;;0.56;100.00
33554;BME280;19885;42.208;24.952;2023-12-20T01:28:20;100251.09;;;1.06;100.00
33554;BME280;19885;42.208;24.952;2023-12-20T01:30:45;100234.72;;;1.38;100.00
33554;BME280;19885;42.208;24.952;2023-12-20T01:33:11;100232.50;;;1.45;100.00
33554;BME280;19885;42.208;24.952;2023-12-20T01:35:39;100231.38;;;1.57;100.00
33554;BME280;19885;42.208;24.952;2023-12-20T01:38:06;100225.19;;;1.71;100.00
33554;BME280;19885;42.208;24.952;2023-12-20T01:40:32;100213.94;;;1.69;100.00
33554;BME280;19885;42.208;24.952;2023-12-20T01:42:58;100211.53;;;1.72;100.00
33554;BME280;19885;42.208;24.952;2023-12-20T01:45:23;100210.28;;;1.28;100.00
33554;BME280;19885;42.208;24.952;2023-12-20T01:47:48;100207.44;;;1.58;100.00
33554;BME280;19885;42.208;24.952;2023-12-20T01:50:16;100204.25;;;1.81;100.00
33554;BME280;19885;42.208;24.952;2023-12-20T01:52:42;100202.31;;;1.40;100.00
33554;BME280;19885;42.208;24.952;2023-12-20T01:55:10;100203.75;;;1.53;100.00
33554;BME280;19885;42.208;24.952;2023-12-20T01:57:41;100204.09;;;1.78;100.00
33554;BME280;19885;42.208;24.952;2023-12-20T02:00:08;100210.81;;;1.74;100.00
33554;BME280;19885;42.208;24.952;2023-12-20T02:02:37;100194.34;;;1.71;100.00
33554;BME280;19885;42.208;24.952;2023-12-20T02:05:06;100196.44;;;1.60;100.00
33554;BME280;19885;42.208;24.952;2023-12-20T02:07:35;100191.50;;;1.65;100.00
33554;BME280;19885;42.208;24.952;2023-12-20T02:10:01;100192.72;;;1.73;100.00
33554;BME280;19885;42.208;24.952;2023-12-20T02:12:26;100191.25;;;1.78;100.00
33554;BME280;19885;42.208;24.952;2023-12-20T02:14:51;100188.91;;;1.82;100.00
33554;BME280;19885;42.208;24.952;2023-12-20T02:17:17;100185.59;;;1.85;100.00
33554;BME280;19885;42.208;24.952;2023-12-20T02:19:45;100183.09;;;1.86;100.00
33554;BME280;19885;42.208;24.952;2023-12-20T02:22:10;100178.59;;;2.00;100.00
33554;BME280;19885;42.208;24.952;2023-12-20T02:24:38;100169.81;;;1.58;100.00
33554;BME280;19885;42.208;24.952;2023-12-20T02:27:05;100177.88;;;1.30;100.00
33554;BME280;19885;42.208;24.952;2023-12-20T02:29:30;100165.00;;;1.11;100.00
33554;BME280;19885;42.208;24.952;2023-12-20T02:32:02;100171.44;;;1.38;100.00
33554;BME280;19885;42.208;24.952;2023-12-20T02:34:28;100166.00;;;1.32;100.00
33554;BME280;19885;42.208;24.952;2023-12-20T02:36:54;100168.69;;;1.00;100.00
33554;BME280;19885;42.208;24.952;2023-12-20T02:39:19;100163.59;;;1.18;100.00
33554;BME280;19885;42.208;24.952;2023-12-20T02:41:45;100168.50;;;1.49;100.00
33554;BME280;19885;42.208;24.952;2023-12-20T02:44:10;100158.66;;;1.58;100.00
33554;BME280;19885;42.208;24.952;2023-12-20T02:46:36;100158.03;;;1.26;100.00
33554;BME280;19885;42.208;24.952;2023-12-20T02:49:03;100156.41;;;1.11;100.00
33554;BME280;19885;42.208;24.952;2023-12-20T02:51:28;100161.00;;;1.00;100.00
33554;BME280;19885;42.208;24.952;2023-12-20T02:53:56;100164.72;;;0.89;100.00
33554;BME280;19885;42.208;24.952;2023-12-20T02:56:24;100156.31;;;0.92;100.00
33554;BME280;19885;42.208;24.952;2023-12-20T02:58:57;100155.06;;;1.01;100.00
33554;BME280;19885;42.208;24.952;2023-12-20T03:01:25;100151.28;;;1.28;100.00
33554;BME280;19885;42.208;24.952;2023-12-20T03:03:51;100153.31;;;1.35;100.00
33554;BME280;19885;42.208;24.952;2023-12-20T03:06:17;100149.13;;;1.37;100.00
33554;BME280;19885;42.208;24.952;2023-12-20T03:08:43;100143.63;;;1.30;100.00
33554;BME280;19885;42.208;24.952;2023-12-20T03:11:08;100144.69;;;1.16;100.00
33554;BME280;19885;42.208;24.952;2023-12-20T03:13:36;100143.34;;;1.06;100.00
33554;BME280;19885;42.208;24.952;2023-12-20T03:16:07;100136.63;;;1.08;100.00
33554;BME280;19885;42.208;24.952;2023-12-20T03:18:36;100141.69;;;1.24;100.00
33554;BME280;19885;42.208;24.952;2023-12-20T03:21:01;100124.56;;;1.07;100.00
33554;BME280;19885;42.208;24.952;2023-12-20T03:23:27;100123.84;;;1.10;100.00
33554;BME280;19885;42.208;24.952;2023-12-20T03:25:52;100129.28;;;1.33;100.00
33554;BME280;19885;42.208;24.952;2023-12-20T03:28:17;100135.72;;;1.43;100.00
33554;BME280;19885;42.208;24.952;2023-12-20T03:30:45;100137.41;;;1.42;100.00
33554;BME280;19885;42.208;24.952;2023-12-20T03:33:10;100132.94;;;1.21;100.00
33554;BME280;19885;42.208;24.952;2023-12-20T03:35:36;100124.28;;;1.19;100.00
33554;BME280;19885;42.208;24.952;2023-12-20T03:38:04;100119.28;;;1.39;100.00
33554;BME280;19885;42.208;24.952;2023-12-20T03:40:29;100122.94;;;1.44;100.00
33554;BME280;19885;42.208;24.952;2023-12-20T03:42:54;100114.53;;;1.47;100.00
33554;BME280;19885;42.208;24.952;2023-12-20T03:45:20;100109.97;;;1.41;100.00
33554;BME280;19885;42.208;24.952;2023-12-20T03:47:45;100111.59;;;1.39;100.00
33554;BME280;19885;42.208;24.952;2023-12-20T03:50:13;100119.44;;;1.42;100.00
33554;BME280;19885;42.208;24.952;2023-12-20T03:52:38;100119.28;;;1.39;100.00
33554;BME280;19885;42.208;24.952;2023-12-20T03:55:03;100118.50;;;1.40;100.00
33554;BME280;19885;42.208;24.952;2023-12-20T03:57:31;100111.75;;;1.42;100.00
33554;BME280;19885;42.208;24.952;2023-12-20T03:59:57;100118.50;;;1.40;100.00
33554;BME280;19885;42.208;24.952;2023-12-20T04:02:25;100119.00;;;1.33;100.00
33554;BME280;19885;42.208;24.952;2023-12-20T04:04:50;100113.28;;;1.21;100.00
33554;BME280;19885;42.208;24.952;2023-12-20T04:07:18;100111.16;;;1.30;100.00
33554;BME280;19885;42.208;24.952;2023-12-20T04:09:43;100116.13;;;1.27;100.00
33554;BME280;19885;42.208;24.952;2023-12-20T04:12:12;100113.72;;;1.30;100.00
33554;BME280;19885;42.208;24.952;2023-12-20T04:14:37;100107.06;;;1.34;100.00
33554;BME280;19885;42.208;24.952;2023-12-20T04:17:05;100115.63;;;1.34;100.00
33554;BME280;19885;42.208;24.952;2023-12-20T04:19:30;100114.53;;;1.29;100.00
33554;BME280;19885;42.208;24.952;2023-12-20T04:21:56;100110.22;;;1.28;100.00
33554;BME280;19885;42.208;24.952;2023-12-20T04:24:21;100104.88;;;1.06;100.00
33554;BME280;19885;42.208;24.952;2023-12-20T04:26:49;100092.59;;;1.18;100.00
33554;BME280;19885;42.208;24.952;2023-12-20T04:29:14;100094.38;;;1.19;100.00
33554;BME280;19885;42.208;24.952;2023-12-20T04:31:39;100097.09;;;1.22;100.00
33554;BME280;19885;42.208;24.952;2023-12-20T04:34:05;100106.41;;;1.20;100.00
33554;BME280;19885;42.208;24.952;2023-12-20T04:36:33;100102.00;;;1.18;100.00
33554;BME280;19885;42.208;24.952;2023-12-20T04:38:58;100097.84;;;1.20;100.00
33554;BME280;19885;42.208;24.952;2023-12-20T04:41:24;100115.19;;;1.25;100.00
33554;BME280;19885;42.208;24.952;2023-12-20T04:43:53;100109.94;;;1.22;100.00
33554;BME280;19885;42.208;24.952;2023-12-20T04:46:18;100104.91;;;1.25;100.00
33554;BME280;19885;42.208;24.952;2023-12-20T04:48:43;100089.09;;;1.16;100.00
33554;BME280;19885;42.208;24.952;2023-12-20T04:51:08;100088.56;;;1.23;100.00
33554;BME280;19885;42.208;24.952;2023-12-20T04:53:34;100085.31;;;1.08;100.00
33554;BME280;19885;42.208;24.952;2023-12-20T04:56:02;100074.09;;;1.06;100.00
33554;BME280;19885;42.208;24.952;2023-12-20T04:58:27;100085.59;;;1.14;100.00
33554;BME280;19885;42.208;24.952;2023-12-20T05:00:53;100089.09;;;1.16;100.00
33554;BME280;19885;42.208;24.952;2023-12-20T05:03:18;100088.16;;;1.14;100.00
33554;BME280;19885;42.208;24.952;2023-12-20T05:05:44;100079.53;;;0.95;100.00
33554;BME280;19885;42.208;24.952;2023-12-20T05:08:09;100085.00;;;1.02;100.00
33554;BME280;19885;42.208;24.952;2023-12-20T05:10:34;100086.59;;;1.00;100.00
33554;BME280;19885;42.208;24.952;2023-12-20T05:13:01;100081.34;;;0.97;100.00
33554;BME280;19885;42.208;24.952;2023-12-20T05:15:29;100077.75;;;0.94;100.00
33554;BME280;19885;42.208;24.952;2023-12-20T05:17:54;100068.22;;;1.09;100.00
33554;BME280;19885;42.208;24.952;2023-12-20T05:20:19;100067.69;;;0.98;100.00
33554;BME280;19885;42.208;24.952;2023-12-20T05:22:44;100059.22;;;0.99;100.00
33554;BME280;19885;42.208;24.952;2023-12-20T05:25:10;100056.00;;;0.86;100.00
33554;BME280;19885;42.208;24.952;2023-12-20T05:27:35;100059.97;;;0.79;100.00
33554;BME280;19885;42.208;24.952;2023-12-20T05:30:01;100058.53;;;0.17;100.00
33554;BME280;19885;42.208;24.952;2023-12-20T05:32:26;100049.91;;;0.15;100.00
33554;BME280;19885;42.208;24.952;2023-12-20T05:34:52;100042.91;;;0.46;100.00
33554;BME280;19885;42.208;24.952;2023-12-20T05:37:18;100044.41;;;0.58;100.00
33554;BME280;19885;42.208;24.952;2023-12-20T05:39:44;100041.19;;;0.80;100.00
33554;BME280;19885;42.208;24.952;2023-12-20T05:42:09;100038.03;;;0.86;100.00
33554;BME280;19885;42.208;24.952;2023-12-20T05:44:35;100042.75;;;0.77;100.00
33554;BME280;19885;42.208;24.952;2023-12-20T05:47:01;100043.69;;;0.61;100.00
33554;BME280;19885;42.208;24.952;2023-12-20T05:49:27;100036.84;;;0.61;100.00
33554;BME280;19885;42.208;24.952;2023-12-20T05:51:52;100037.50;;;0.57;100.00
33554;BME280;19885;42.208;24.952;2023-12-20T05:54:19;100031.72;;;0.61;100.00
33554;BME280;19885;42.208;24.952;2023-12-20T05:56:45;100038.13;;;0.52;100.00
33554;BME280;19885;42.208;24.952;2023-12-20T05:59:10;100035.19;;;0.62;100.00
33554;BME280;19885;42.208;24.952;2023-12-20T06:01:36;100021.63;;;0.64;100.00
33554;BME280;19885;42.208;24.952;2023-12-20T06:04:01;100030.44;;;0.69;100.00
33554;BME280;19885;42.208;24.952;2023-12-20T06:06:28;100030.66;;;0.74;100.00
33554;BME280;19885;42.208;24.952;2023-12-20T06:08:54;100022.22;;;0.77;100.00
33554;BME280;19885;42.208;24.952;2023-12-20T06:11:20;100021.03;;;0.88;100.00
33554;BME280;19885;42.208;24.952;2023-12-20T06:13:46;100026.09;;;0.86;100.00
33554;BME280;19885;42.208;24.952;2023-12-20T06:16:11;100016.44;;;0.81;100.00
33554;BME280;19885;42.208;24.952;2023-12-20T06:18:36;100019.44;;;0.90;100.00
33554;BME280;19885;42.208;24.952;2023-12-20T06:21:02;100018.03;;;0.96;100.00
33554;BME280;19885;42.208;24.952;2023-12-20T06:23:27;100020.94;;;1.04;100.00
33554;BME280;19885;42.208;24.952;2023-12-20T06:25:53;100017.41;;;1.19;100.00
33554;BME280;19885;42.208;24.952;2023-12-20T06:28:18;100021.34;;;1.30;100.00
33554;BME280;19885;42.208;24.952;2023-12-20T06:30:43;100032.91;;;1.40;100.00
33554;BME280;19885;42.208;24.952;2023-12-20T06:33:09;100028.19;;;1.49;100.00
33554;BME280;19885;42.208;24.952;2023-12-20T06:35:36;100017.44;;;1.58;100.00
33554;BME280;19885;42.208;24.952;2023-12-20T06:38:01;100017.66;;;1.81;100.00
33554;BME280;19885;42.208;24.952;2023-12-20T06:40:29;100021.16;;;2.23;100.00
33554;BME280;19885;42.208;24.952;2023-12-20T06:42:54;100008.75;;;2.54;100.00
33554;BME280;19885;42.208;24.952;2023-12-20T06:45:19;100016.38;;;2.96;100.00
33554;BME280;19885;42.208;24.952;2023-12-20T06:47:45;100016.28;;;3.37;100.00
33554;BME280;19885;42.208;24.952;2023-12-20T06:50:10;100018.22;;;3.66;100.00
33554;BME280;19885;42.208;24.952;2023-12-20T06:52:35;100025.69;;;3.58;100.00
33554;BME280;19885;42.208;24.952;2023-12-20T06:55:01;100023.50;;;3.93;100.00
33554;BME280;19885;42.208;24.952;2023-12-20T06:57:26;100027.88;;;3.95;100.00
33554;BME280;19885;42.208;24.952;2023-12-20T06:59:51;100035.38;;;4.13;100.00
33554;BME280;19885;42.208;24.952;2023-12-20T07:02:17;100026.47;;;4.28;100.00
33554;BME280;19885;42.208;24.952;2023-12-20T07:04:42;100023.16;;;4.32;100.00
33554;BME280;19885;42.208;24.952;2023-12-20T07:07:08;100023.00;;;4.53;100.00
33554;BME280;19885;42.208;24.952;2023-12-20T07:09:33;100029.09;;;4.55;100.00
33554;BME280;19885;42.208;24.952;2023-12-20T07:11:58;100021.50;;;4.86;100.00
33554;BME280;19885;42.208;24.952;2023-12-20T07:14:24;100009.59;;;4.90;100.00
33554;BME280;19885;42.208;24.952;2023-12-20T07:16:49;100007.81;;;5.16;100.00
33554;BME280;19885;42.208;24.952;2023-12-20T07:19:14;100001.94;;;5.49;100.00
33554;BME280;19885;42.208;24.952;2023-12-20T07:21:40;99998.25;;;5.72;100.00
33554;BME280;19885;42.208;24.952;2023-12-20T07:24:05;99991.69;;;5.84;100.00
33554;BME280;19885;42.208;24.952;2023-12-20T07:26:30;99981.88;;;6.02;100.00
33554;BME280;19885;42.208;24.952;2023-12-20T07:28:55;99986.44;;;6.12;100.00
33554;BME280;19885;42.208;24.952;2023-12-20T07:31:21;99994.50;;;6.22;100.00
33554;BME280;19885;42.208;24.952;2023-12-20T07:33:46;99989.03;;;6.44;100.00
33554;BME280;19885;42.208;24.952;2023-12-20T07:36:14;99993.84;;;6.65;99.82
33554;BME280;19885;42.208;24.952;2023-12-20T07:38:39;99977.06;;;6.85;99.46
33554;BME280;19885;42.208;24.952;2023-12-20T07:41:08;99973.03;;;6.98;96.74
33554;BME280;19885;42.208;24.952;2023-12-20T07:43:37;99973.94;;;6.63;95.66
33554;BME280;19885;42.208;24.952;2023-12-20T07:46:06;99978.28;;;6.99;97.12
33554;BME280;19885;42.208;24.952;2023-12-20T07:48:31;99986.66;;;7.27;97.79
33554;BME280;19885;42.208;24.952;2023-12-20T07:50:57;99976.31;;;7.30;96.75
33554;BME280;19885;42.208;24.952;2023-12-20T07:53:22;99971.78;;;7.60;95.90
33554;BME280;19885;42.208;24.952;2023-12-20T07:55:49;99965.44;;;7.87;95.94
33554;BME280;19885;42.208;24.952;2023-12-20T07:58:17;99967.63;;;8.14;95.38
33554;BME280;19885;42.208;24.952;2023-12-20T08:00:42;99968.00;;;8.32;94.62
33554;BME280;19885;42.208;24.952;2023-12-20T08:03:10;99969.34;;;8.61;94.09
33554;BME280;19885;42.208;24.952;2023-12-20T08:05:36;99965.31;;;8.79;92.59
33554;BME280;19885;42.208;24.952;2023-12-20T08:08:02;99918.19;;;8.56;92.56
33554;BME280;19885;42.208;24.952;2023-12-20T08:10:27;99962.16;;;9.01;92.55
33554;BME280;19885;42.208;24.952;2023-12-20T08:12:55;99963.59;;;8.81;91.68
33554;BME280;19885;42.208;24.952;2023-12-20T08:15:20;99965.94;;;8.66;93.74
33554;BME280;19885;42.208;24.952;2023-12-20T08:17:45;99956.63;;;8.26;95.37
33554;BME280;19885;42.208;24.952;2023-12-20T08:20:13;99960.19;;;8.31;96.06
33554;BME280;19885;42.208;24.952;2023-12-20T08:22:44;99950.88;;;8.43;95.34
33554;BME280;19885;42.208;24.952;2023-12-20T08:25:12;99952.41;;;8.32;96.01
33554;BME280;19885;42.208;24.952;2023-12-20T08:27:43;99946.47;;;8.39;99.11
33554;BME280;19885;42.208;24.952;2023-12-20T08:30:08;99942.19;;;8.41;95.94
33554;BME280;19885;42.208;24.952;2023-12-20T08:32:34;99933.16;;;8.21;97.90
33554;BME280;19885;42.208;24.952;2023-12-20T08:34:59;99930.38;;;8.58;98.35
33554;BME280;19885;42.208;24.952;2023-12-20T08:37:25;99934.94;;;8.76;96.18
33554;BME280;19885;42.208;24.952;2023-12-20T08:39:50;99924.38;;;8.66;96.32
33554;BME280;19885;42.208;24.952;2023-12-20T08:42:21;99932.09;;;8.61;95.21
33554;BME280;19885;42.208;24.952;2023-12-20T08:44:51;99926.53;;;8.35;98.17
33554;BME280;19885;42.208;24.952;2023-12-20T08:47:19;99916.44;;;8.55;96.00
33554;BME280;19885;42.208;24.952;2023-12-20T08:49:46;99909.09;;;8.85;97.36
33554;BME280;19885;42.208;24.952;2023-12-20T08:52:12;99900.66;;;9.01;97.84
33554;BME280;19885;42.208;24.952;2023-12-20T08:54:37;99899.09;;;9.15;94.92
33554;BME280;19885;42.208;24.952;2023-12-20T08:57:02;99899.41;;;8.74;93.61
33554;BME280;19885;42.208;24.952;2023-12-20T08:59:27;99891.94;;;8.38;97.16
33554;BME280;19885;42.208;24.952;2023-12-20T09:01:55;99905.50;;;8.23;99.53
33554;BME280;19885;42.208;24.952;2023-12-20T09:04:21;99888.72;;;8.03;100.00
33554;BME280;19885;42.208;24.952;2023-12-20T09:06:46;99875.34;;;7.79;100.00
33554;BME280;19885;42.208;24.952;2023-12-20T09:09:11;99867.72;;;7.40;100.00
33554;BME280;19885;42.208;24.952;2023-12-20T09:11:39;99855.59;;;7.41;100.00
33554;BME280;19885;42.208;24.952;2023-12-20T09:14:07;99855.09;;;7.58;100.00
33554;BME280;19885;42.208;24.952;2023-12-20T09:16:35;99848.16;;;7.59;100.00
33554;BME280;19885;42.208;24.952;2023-12-20T09:19:00;99834.53;;;7.69;100.00
33554;BME280;19885;42.208;24.952;2023-12-20T09:21:26;99826.75;;;7.69;100.00
33554;BME280;19885;42.208;24.952;2023-12-20T09:23:54;99826.00;;;7.77;100.00
33554;BME280;19885;42.208;24.952;2023-12-20T09:26:20;99824.75;;;8.05;100.00
33554;BME280;19885;42.208;24.952;2023-12-20T09:28:46;99827.00;;;8.36;100.00
33554;BME280;19885;42.208;24.952;2023-12-20T09:31:11;99809.19;;;8.60;100.00
33554;BME280;19885;42.208;24.952;2023-12-20T09:33:36;99805.34;;;9.00;100.00
33554;BME280;19885;42.208;24.952;2023-12-20T09:36:01;99803.06;;;9.26;97.81
33554;BME280;19885;42.208;24.952;2023-12-20T09:38:27;99794.84;;;9.74;99.46
33554;BME280;19885;42.208;24.952;2023-12-20T09:40:52;99792.66;;;10.19;100.00
33554;BME280;19885;42.208;24.952;2023-12-20T09:43:19;99792.75;;;10.33;95.90
33554;BME280;19885;42.208;24.952;2023-12-20T09:45:46;99789.19;;;10.25;95.55
33554;BME280;19885;42.208;24.952;2023-12-20T09:48:15;99789.78;;;9.87;94.11
33554;BME280;19885;42.208;24.952;2023-12-20T09:50:42;99780.44;;;10.12;94.86
33554;BME280;19885;42.208;24.952;2023-12-20T09:53:09;99771.06;;;10.40;92.33
33554;BME280;19885;42.208;24.952;2023-12-20T09:55:37;99772.81;;;10.38;94.71
33554;BME280;19885;42.208;24.952;2023-12-20T09:58:08;99771.03;;;10.34;94.02
33554;BME280;19885;42.208;24.952;2023-12-20T10:00:37;99763.25;;;10.43;93.64
33554;BME280;19885;42.208;24.952;2023-12-20T10:03:05;99763.78;;;9.93;95.18
33554;BME280;19885;42.208;24.952;2023-12-20T10:05:32;99746.59;;;10.14;99.28
33554;BME280;19885;42.208;24.952;2023-12-20T10:07:58;99747.63;;;10.41;97.59
33554;BME280;19885;42.208;24.952;2023-12-20T10:10:24;99740.75;;;10.51;96.14
33554;BME280;19885;42.208;24.952;2023-12-20T10:13:05;99734.63;;;10.46;95.34
33554;BME280;19885;42.208;24.952;2023-12-20T10:15:34;99726.00;;;10.59;94.97
33554;BME280;19885;42.208;24.952;2023-12-20T10:18:02;99724.31;;;10.74;95.73
33554;BME280;19885;42.208;24.952;2023-12-20T10:20:28;99720.88;;;10.86;93.88
33554;BME280;19885;42.208;24.952;2023-12-20T10:22:54;99713.94;;;10.85;94.46
33554;BME280;19885;42.208;24.952;2023-12-20T10:25:25;99713.94;;;10.82;94.93
33554;BME280;19885;42.208;24.952;2023-12-20T10:30:33;99718.97;;;10.37;96.29
33554;BME280;19885;42.208;24.952;2023-12-20T10:32:58;99708.63;;;10.61;95.52
33554;BME280;19885;42.208;24.952;2023-12-20T10:35:23;99702.50;;;10.44;96.04
33554;BME280;19885;42.208;24.952;2023-12-20T10:37:49;99701.53;;;10.24;96.93
33554;BME280;19885;42.208;24.952;2023-12-20T10:40:14;99696.44;;;10.45;97.48
33554;BME280;19885;42.208;24.952;2023-12-20T10:42:39;99687.69;;;10.37;97.65
33554;BME280;19885;42.208;24.952;2023-12-20T10:45:06;99680.91;;;10.78;97.21
33554;BME280;19885;42.208;24.952;2023-12-20T10:47:31;99668.78;;;10.95;94.18
33554;BME280;19885;42.208;24.952;2023-12-20T10:49:57;99664.47;;;11.09;94.94
33554;BME280;19885;42.208;24.952;2023-12-20T10:52:24;99666.22;;;11.24;93.28
33554;BME280;19885;42.208;24.952;2023-12-20T10:54:50;99658.38;;;11.34;92.21
33554;BME280;19885;42.208;24.952;2023-12-20T10:57:18;99660.13;;;11.38;92.08
33554;BME280;19885;42.208;24.952;2023-12-20T10:59:46;99644.47;;;11.38;92.36
33554;BME280;19885;42.208;24.952;2023-12-20T11:02:17;99647.06;;;11.16;90.58
33554;BME280;19885;42.208;24.952;2023-12-20T11:09:44;99631.34;;;10.61;95.81
33554;BME280;19885;42.208;24.952;2023-12-20T11:12:13;99628.78;;;10.89;94.25
33554;BME280;19885;42.208;24.952;2023-12-20T11:14:42;99626.19;;;10.87;91.77
33554;BME280;19885;42.208;24.952;2023-12-20T11:17:11;99621.72;;;10.33;94.00
33554;BME280;19885;42.208;24.952;2023-12-20T11:22:22;99617.41;;;10.41;99.10
33554;BME280;19885;42.208;24.952;2023-12-20T11:24:47;99606.16;;;10.56;94.86
33554;BME280;19885;42.208;24.952;2023-12-20T11:27:13;99593.13;;;10.56;96.98
33554;BME280;19885;42.208;24.952;2023-12-20T11:29:39;99600.06;;;10.61;94.93
33554;BME280;19885;42.208;24.952;2023-12-20T11:35:01;99587.78;;;10.12;96.98
33554;BME280;19885;42.208;24.952;2023-12-20T11:37:33;99587.03;;;10.45;97.36
33554;BME280;19885;42.208;24.952;2023-12-20T11:40:00;99589.63;;;10.45;96.83
33554;BME280;19885;42.208;24.952;2023-12-20T11:42:26;99586.16;;;10.52;97.69
33554;BME280;19885;42.208;24.952;2023-12-20T11:44:52;99577.47;;;10.59;96.01
33554;BME280;19885;42.208;24.952;2023-12-20T11:47:20;99570.50;;;10.41;96.67
33554;BME280;19885;42.208;24.952;2023-12-20T11:49:47;99568.75;;;10.30;97.09
33554;BME280;19885;42.208;24.952;2023-12-20T11:52:13;99567.03;;;10.33;95.51
33554;BME280;19885;42.208;24.952;2023-12-20T11:54:41;99553.16;;;10.45;96.82
33554;BME280;19885;42.208;24.952;2023-12-20T11:57:06;99551.44;;;10.47;95.13
33554;BME280;19885;42.208;24.952;2023-12-20T11:59:37;99534.06;;;10.65;95.77
33554;BME280;19885;42.208;24.952;2023-12-20T12:02:02;99535.81;;;10.62;95.71
33554;BME280;19885;42.208;24.952;2023-12-20T12:04:28;99538.41;;;10.51;95.08
33554;BME280;19885;42.208;24.952;2023-12-20T12:06:57;99534.94;;;10.45;95.15
33554;BME280;19885;42.208;24.952;2023-12-20T12:09:22;99518.41;;;10.31;94.97
33554;BME280;19885;42.208;24.952;2023-12-20T12:11:47;99522.75;;;10.45;95.75
33554;BME280;19885;42.208;24.952;2023-12-20T12:14:13;99518.44;;;10.59;96.33
33554;BME280;19885;42.208;24.952;2023-12-20T12:16:38;99507.13;;;10.54;95.70
33554;BME280;19885;42.208;24.952;2023-12-20T12:19:03;99515.81;;;10.56;95.85
33554;BME280;19885;42.208;24.952;2023-12-20T12:21:32;99513.19;;;10.43;95.29
33554;BME280;19885;42.208;24.952;2023-12-20T12:24:09;99507.97;;;10.32;95.16
33554;BME280;19885;42.208;24.952;2023-12-20T12:26:35;99501.94;;;10.51;95.75
33554;BME280;19885;42.208;24.952;2023-12-20T12:29:00;99501.94;;;10.54;96.64
33554;BME280;19885;42.208;24.952;2023-12-20T12:31:25;99494.13;;;10.57;95.82
33554;BME280;19885;42.208;24.952;2023-12-20T12:33:51;99496.72;;;10.53;96.02
33554;BME280;19885;42.208;24.952;2023-12-20T12:36:17;99491.53;;;10.47;95.98
33554;BME280;19885;42.208;24.952;2023-12-20T12:38:47;99502.78;;;10.31;96.22
33554;BME280;19885;42.208;24.952;2023-12-20T12:41:13;99498.44;;;10.24;96.91
33554;BME280;19885;42.208;24.952;2023-12-20T12:43:40;99481.94;;;10.41;97.00
33554;BME280;19885;42.208;24.952;2023-12-20T12:46:08;99485.44;;;10.42;96.40
33554;BME280;19885;42.208;24.952;2023-12-20T12:48:33;99486.31;;;10.42;97.84
33554;BME280;19885;42.208;24.952;2023-12-20T12:50:59;99480.22;;;10.36;98.07
33554;BME280;19885;42.208;24.952;2023-12-20T12:53:25;99481.09;;;10.47;97.87